Time;durP1;ratioP1;P1;durP2;ratioP2;P2;SDS_P1;SDS_P2;PMS_P1;PMS_P2;Temp;Humidity;BMP_temperature;BMP_pressure;BME280_temperature;BME280_humidity;BME280_pressure;Samples;Min_cycle;Max_cycle;Signal;HPM_P1;HPM_P2
2022/08/16 00:01:07;;;;;;;4.65;3.33;;;25.40;69.00;;;;;;5054490;28;20534;-73
2022/08/16 00:03:33;;;;;;;6.57;4.18;;;25.40;69.00;;;;;;5054700;28;20076;-75
2022/08/16 00:05:59;;;;;;;7.45;3.92;;;25.40;68.90;;;;;;5054697;28;20075;-75
2022/08/16 00:08:25;;;;;;;6.72;3.95;;;25.40;69.00;;;;;;5054364;28;20469;-75
2022/08/16 00:10:51;;;;;;;5.65;3.90;;;25.40;68.90;;;;;;5054421;28;20033;-75
2022/08/16 00:13:16;;;;;;;6.68;3.70;;;25.40;68.90;;;;;;5054312;28;20433;-74
2022/08/16 00:15:46;;;;;;;8.38;4.40;;;25.40;69.10;;;;;;5054557;28;20119;-74
2022/08/16 00:18:13;;;;;;;5.45;4.28;;;25.40;69.20;;;;;;5054598;28;20063;-74
2022/08/16 00:20:42;;;;;;;5.35;3.90;;;25.40;69.20;;;;;;5054625;28;20090;-75
2022/08/16 00:23:08;;;;;;;7.53;4.95;;;25.40;69.30;;;;;;5054288;28;20381;-75
2022/08/16 00:25:34;;;;;;;4.47;4.05;;;25.40;69.20;;;;;;5054059;28;20041;-74
2022/08/16 00:28:00;;;;;;;4.63;4.10;;;25.40;69.30;;;;;;5053989;28;20476;-75
2022/08/16 00:30:26;;;;;;;6.35;3.38;;;25.40;69.30;;;;;;5054180;28;20170;-74
2022/08/16 00:32:57;;;;;;;5.15;4.00;;;25.40;69.30;;;;;;5054198;28;20028;-75
2022/08/16 00:35:27;;;;;;;8.88;4.15;;;25.50;69.30;;;;;;5054265;28;20037;-75
2022/08/16 00:37:55;;;;;;;6.63;3.63;;;25.50;69.30;;;;;;5054092;28;20037;-75
2022/08/16 00:40:27;;;;;;;9.18;4.00;;;25.50;69.30;;;;;;5053826;28;20048;-75
2022/08/16 00:42:53;;;;;;;8.35;4.25;;;25.40;69.20;;;;;;5054163;28;20372;-75
2022/08/16 00:45:29;;;;;;;7.60;4.65;;;25.50;69.30;;;;;;5053837;28;20029;-75
2022/08/16 00:47:55;;;;;;;6.25;5.35;;;25.40;69.20;;;;;;5053824;28;20145;-75
2022/08/16 00:50:24;;;;;;;8.65;4.22;;;25.40;69.50;;;;;;5053828;28;20033;-75
2022/08/16 00:52:50;;;;;;;5.25;3.63;;;25.40;69.90;;;;;;5053556;28;20503;-75
2022/08/16 00:55:16;;;;;;;5.82;3.60;;;25.30;69.80;;;;;;5053630;28;20037;-75
2022/08/16 00:57:42;;;;;;;5.15;4.18;;;25.40;69.90;;;;;;5053575;28;20021;-75
2022/08/16 01:00:08;;;;;;;3.40;3.10;;;25.40;69.90;;;;;;5053503;28;20496;-75
2022/08/16 01:02:34;;;;;;;5.13;3.95;;;25.40;69.80;;;;;;5053769;28;20041;-74
2022/08/16 01:05:00;;;;;;;6.18;3.85;;;25.40;69.80;;;;;;5053543;28;20435;-75
2022/08/16 01:07:27;;;;;;;4.85;3.72;;;25.40;69.80;;;;;;5053418;28;20025;-75
2022/08/16 01:09:52;;;;;;;4.45;3.50;;;25.40;69.90;;;;;;5053140;28;20499;-74
2022/08/16 01:12:19;;;;;;;4.20;3.63;;;25.40;69.90;;;;;;5053345;28;20029;-75
2022/08/16 01:14:49;;;;;;;7.05;4.35;;;25.40;69.80;;;;;;5053112;28;20083;-74
2022/08/16 01:17:17;;;;;;;5.93;3.97;;;25.40;69.90;;;;;;5053541;28;20029;-74
2022/08/16 01:19:47;;;;;;;6.63;4.20;;;25.40;69.90;;;;;;5053082;28;20033;-74
2022/08/16 01:22:36;;;;;;;5.85;4.05;;;25.30;69.90;;;;;;5053559;28;20066;-74
2022/08/16 01:25:08;;;;;;;7.90;4.43;;;25.30;70.60;;;;;;5053082;28;20055;-75
2022/08/16 01:27:43;;;;;;;7.47;4.65;;;25.30;70.10;;;;;;5053152;28;20024;-74
2022/08/16 01:30:19;;;;;;;6.43;4.32;;;25.30;70.20;;;;;;5053218;28;20054;-75
2022/08/16 01:32:45;;;;;;;5.40;4.28;;;25.30;70.20;;;;;;5053567;28;20025;-74
2022/08/16 01:35:16;;;;;;;7.88;4.63;;;25.30;70.30;;;;;;5053236;28;20041;-75
2022/08/16 01:37:46;;;;;;;4.50;4.03;;;25.20;70.40;;;;;;5053483;28;20053;-75
2022/08/16 01:40:16;;;;;;;5.15;4.60;;;25.20;70.60;;;;;;5052707;28;20632;-75
2022/08/16 01:42:43;;;;;;;7.60;4.88;;;25.20;70.70;;;;;;5053271;28;20288;-75
2022/08/16 01:45:09;;;;;;;6.50;4.35;;;25.20;70.80;;;;;;5053014;28;20032;-74
2022/08/16 01:47:37;;;;;;;5.82;4.35;;;25.20;71.00;;;;;;5053325;28;20400;-75
2022/08/16 01:50:05;;;;;;;8.02;4.60;;;25.20;71.20;;;;;;5052729;28;20457;-75
2022/08/16 01:52:31;;;;;;;4.43;4.03;;;25.20;71.40;;;;;;5052946;28;20492;-75
2022/08/16 01:54:57;;;;;;;8.15;5.47;;;25.10;71.40;;;;;;5052870;28;20040;-75
2022/08/16 01:57:23;;;;;;;7.95;5.32;;;25.10;71.50;;;;;;5052885;28;20082;-75
2022/08/16 01:59:49;;;;;;;6.20;5.63;;;25.10;71.70;;;;;;5052893;28;20029;-75
2022/08/16 02:02:15;;;;;;;6.40;5.70;;;25.10;71.80;;;;;;5053067;28;20059;-74
2022/08/16 02:04:40;;;;;;;7.80;5.22;;;25.10;71.90;;;;;;5052862;28;20412;-75
2022/08/16 02:07:09;;;;;;;7.75;6.10;;;25.00;72.00;;;;;;5053117;28;20025;-75
2022/08/16 02:09:37;;;;;;;7.10;5.60;;;25.00;72.20;;;;;;5052496;28;20430;-75
2022/08/16 02:12:05;;;;;;;8.50;5.65;;;25.00;72.10;;;;;;5052640;28;20022;-75
2022/08/16 02:14:32;;;;;;;6.35;5.45;;;25.00;72.10;;;;;;5052974;28;20047;-75
2022/08/16 02:17:01;;;;;;;9.13;4.57;;;25.00;72.20;;;;;;5052915;28;20095;-75
2022/08/16 02:19:33;;;;;;;5.97;5.30;;;25.00;72.30;;;;;;5052468;28;20025;-75
2022/08/16 02:22:00;;;;;;;;;;;25.00;72.30;;;;;;5053048;28;20018;-74
2022/08/16 02:24:26;;;;;;;5.75;5.05;;;25.00;72.40;;;;;;5052464;28;19924;-74
2022/08/16 02:26:51;;;;;;;6.80;5.18;;;25.00;72.30;;;;;;5055954;28;20033;-74
2022/08/16 02:29:18;;;;;;;6.55;5.45;;;24.90;72.40;;;;;;5056725;28;20068;-75
2022/08/16 02:31:48;;;;;;;8.63;6.25;;;24.90;72.40;;;;;;5056627;28;20049;-74
2022/08/16 02:34:14;;;;;;;6.80;5.20;;;24.90;72.50;;;;;;5056185;28;20033;-75
2022/08/16 02:36:41;;;;;;;6.78;5.32;;;24.90;72.50;;;;;;5056507;28;20431;-75
2022/08/16 02:39:08;;;;;;;9.52;6.32;;;24.90;72.60;;;;;;5056090;28;20025;-75
2022/08/16 02:41:35;;;;;;;7.20;6.50;;;24.80;72.60;;;;;;5056307;28;20032;-75
2022/08/16 02:44:02;;;;;;;10.07;5.95;;;24.80;72.70;;;;;;5056424;28;20372;-75
2022/08/16 02:46:28;;;;;;;6.47;5.88;;;24.80;72.60;;;;;;5056377;28;20035;-75
2022/08/16 02:48:54;;;;;;;6.95;6.10;;;24.80;72.70;;;;;;5056077;28;20104;-75
2022/08/16 02:51:19;;;;;;;7.35;5.18;;;24.80;72.70;;;;;;5056366;28;20068;-74
2022/08/16 02:53:47;;;;;;;8.27;5.85;;;24.80;72.80;;;;;;5055616;28;20128;-75
2022/08/16 02:56:14;;;;;;;6.68;5.63;;;24.80;72.80;;;;;;5055878;28;20388;-75
2022/08/16 02:58:40;;;;;;;6.97;5.47;;;24.80;72.90;;;;;;5055860;28;20357;-75
2022/08/16 03:01:09;;;;;;;7.28;5.53;;;24.80;72.90;;;;;;5055735;28;20078;-75
2022/08/16 03:03:35;;;;;;;6.15;5.00;;;24.80;72.80;;;;;;5055721;28;20515;-75
2022/08/16 03:06:02;;;;;;;5.93;5.32;;;24.80;72.80;;;;;;5055766;28;20484;-75
2022/08/16 03:08:28;;;;;;;8.43;5.68;;;24.80;72.90;;;;;;5055681;28;20090;-75
2022/08/16 03:10:53;;;;;;;7.15;5.78;;;24.70;72.90;;;;;;5055689;28;20021;-75
2022/08/16 03:13:19;;;;;;;7.15;5.45;;;24.70;73.00;;;;;;5055900;28;20107;-75
2022/08/16 03:15:46;;;;;;;10.00;4.70;;;24.70;73.10;;;;;;5055569;28;20380;-74
2022/08/16 03:18:12;;;;;;;6.65;5.40;;;24.60;73.10;;;;;;5055662;28;20047;-74
2022/08/16 03:20:38;;;;;;;6.65;6.05;;;24.60;73.10;;;;;;5055658;28;20031;-75
2022/08/16 03:23:05;;;;;;;8.88;6.55;;;24.60;73.10;;;;;;5055367;28;20387;-75
2022/08/16 03:25:32;;;;;;;10.18;6.88;;;24.60;73.10;;;;;;5055017;28;20072;-74
2022/08/16 03:27:59;;;;;;;10.38;7.10;;;24.60;73.10;;;;;;5055532;28;20045;-74
2022/08/16 03:30:29;;;;;;;8.60;7.55;;;24.60;73.20;;;;;;5055705;28;20075;-75
2022/08/16 03:32:55;;;;;;;10.73;8.20;;;24.60;73.20;;;;;;5055216;28;20033;-75
2022/08/16 03:35:28;;;;;;;9.10;7.85;;;24.60;73.10;;;;;;5054879;28;20041;-75
2022/08/16 03:37:59;;;;;;;9.60;7.97;;;24.60;73.20;;;;;;5055059;28;20112;-74
2022/08/16 03:40:25;;;;;;;10.90;9.77;;;24.60;73.40;;;;;;5055043;28;20566;-74
2022/08/16 03:42:51;;;;;;;12.02;9.30;;;24.60;73.50;;;;;;5055400;28;20053;-74
2022/08/16 03:45:17;;;;;;;11.25;10.15;;;24.50;73.60;;;;;;5054795;28;20025;-74
2022/08/16 03:47:46;;;;;;;9.13;8.32;;;24.50;73.70;;;;;;5054973;28;20095;-75
2022/08/16 03:50:13;;;;;;;13.35;10.00;;;24.50;73.90;;;;;;5055193;28;20037;-74
2022/08/16 03:52:39;;;;;;;10.13;9.07;;;24.50;74.10;;;;;;5055284;28;20096;-74
2022/08/16 03:55:06;;;;;;;9.93;8.93;;;24.40;74.20;;;;;;5054604;28;20078;-73
2022/08/16 03:57:32;;;;;;;10.60;9.50;;;24.40;74.20;;;;;;5054753;28;20021;-73
2022/08/16 03:59:57;;;;;;;12.02;9.55;;;24.40;74.30;;;;;;5054733;28;20040;-73
2022/08/16 04:02:23;;;;;;;10.57;9.57;;;24.40;74.40;;;;;;5054605;28;20021;-73
2022/08/16 04:04:49;;;;;;;11.80;10.65;;;24.40;74.50;;;;;;5054649;28;20021;-73
2022/08/16 04:07:15;;;;;;;12.18;9.77;;;24.40;74.60;;;;;;5054531;28;20025;-73
2022/08/16 04:09:41;;;;;;;11.40;10.15;;;24.30;74.90;;;;;;5054310;28;20036;-74
2022/08/16 04:12:09;;;;;;;11.18;9.93;;;24.30;75.10;;;;;;5054622;28;20032;-74
2022/08/16 04:14:35;;;;;;;12.50;11.20;;;24.30;75.10;;;;;;5054424;28;20040;-74
2022/08/16 04:17:01;;;;;;;11.43;10.32;;;24.20;75.10;;;;;;5053955;28;20031;-74
2022/08/16 04:19:27;;;;;;;12.10;10.75;;;24.20;75.20;;;;;;5054622;28;20021;-74
2022/08/16 04:21:54;;;;;;;11.32;10.02;;;24.20;75.90;;;;;;5054571;28;20127;-73
2022/08/16 04:24:19;;;;;;;12.07;10.88;;;24.20;75.30;;;;;;5054242;28;20053;-73
2022/08/16 04:26:45;;;;;;;13.70;10.13;;;24.20;75.40;;;;;;5054207;28;20451;-74
2022/08/16 04:29:11;;;;;;;10.50;9.48;;;24.20;75.60;;;;;;5054266;28;20037;-74
2022/08/16 04:31:36;;;;;;;12.82;10.30;;;24.20;75.70;;;;;;5053775;28;20021;-74
2022/08/16 04:34:02;;;;;;;15.73;12.77;;;24.20;75.70;;;;;;5053889;28;20404;-74
2022/08/16 04:36:28;;;;;;;13.07;11.70;;;24.20;75.90;;;;;;5054269;28;20036;-73
2022/08/16 04:38:54;;;;;;;13.27;10.95;;;24.10;76.10;;;;;;5054076;28;20100;-74
2022/08/16 04:41:21;;;;;;;11.27;9.88;;;24.10;76.30;;;;;;5053937;28;20472;-73
2022/08/16 04:43:47;;;;;;;13.27;12.07;;;24.00;76.40;;;;;;5054149;28;20021;-73
2022/08/16 04:46:15;;;;;;;13.90;11.85;;;24.00;76.50;;;;;;5053765;28;20500;-74
2022/08/16 04:48:41;;;;;;;16.98;13.90;;;24.00;76.60;;;;;;5053159;28;20040;-74
2022/08/16 04:51:08;;;;;;;16.38;14.07;;;23.90;76.80;;;;;;5054095;28;20107;-73
2022/08/16 04:53:37;;;;;;;15.77;14.05;;;23.90;77.10;;;;;;5053983;28;20377;-74
2022/08/16 04:56:03;;;;;;;16.33;14.70;;;23.80;77.30;;;;;;5053593;28;20057;-73
2022/08/16 04:58:30;;;;;;;16.60;14.27;;;23.70;77.60;;;;;;5053633;28;20094;-74
2022/08/16 05:00:56;;;;;;;14.13;12.70;;;23.60;77.90;;;;;;5053586;28;20480;-74
2022/08/16 05:03:22;;;;;;;16.42;13.77;;;23.60;78.10;;;;;;5053501;28;20044;-73
2022/08/16 05:05:49;;;;;;;13.27;11.98;;;23.60;78.30;;;;;;5053654;28;20021;-74
2022/08/16 05:08:14;;;;;;;18.27;14.13;;;23.50;78.50;;;;;;5053481;28;20029;-74
2022/08/16 05:10:40;;;;;;;14.27;12.63;;;23.50;78.80;;;;;;5053534;28;20052;-74
2022/08/16 05:13:06;;;;;;;16.05;14.35;;;23.50;78.90;;;;;;5053288;28;20424;-74
2022/08/16 05:15:33;;;;;;;15.60;14.00;;;23.50;78.90;;;;;;5053440;28;20055;-73
2022/08/16 05:17:59;;;;;;;14.32;12.55;;;23.50;79.00;;;;;;5053501;28;20021;-74
2022/08/16 05:20:25;;;;;;;13.75;12.32;;;23.50;79.10;;;;;;5053341;28;20103;-73
2022/08/16 05:22:51;;;;;;;14.55;13.05;;;23.50;79.00;;;;;;5053399;28;20075;-74
2022/08/16 05:25:17;;;;;;;14.18;11.98;;;23.50;79.10;;;;;;5053218;28;20049;-74
2022/08/16 05:27:43;;;;;;;15.25;12.85;;;23.60;79.10;;;;;;5053116;28;20541;-74
2022/08/16 05:30:14;;;;;;;14.20;12.70;;;23.60;79.10;;;;;;5052987;28;20064;-73
2022/08/16 05:32:44;;;;;;;12.53;10.97;;;23.60;79.10;;;;;;5053253;28;20096;-74
2022/08/16 05:35:11;;;;;;;15.48;12.65;;;23.60;79.00;;;;;;5053365;28;20065;-74
2022/08/16 05:37:38;;;;;;;14.10;12.70;;;23.70;79.00;;;;;;5053190;28;20362;-74
2022/08/16 05:40:06;;;;;;;15.43;13.15;;;23.70;79.00;;;;;;5052855;28;20025;-73
2022/08/16 05:42:32;;;;;;;15.02;12.43;;;23.70;79.00;;;;;;5052793;28;20029;-74
2022/08/16 05:44:59;;;;;;;13.93;12.15;;;23.70;78.90;;;;;;5053094;28;20028;-74
2022/08/16 05:47:25;;;;;;;15.00;13.40;;;23.80;78.90;;;;;;5053035;28;20025;-73
2022/08/16 05:49:52;;;;;;;14.82;13.35;;;23.80;78.80;;;;;;5052463;28;20468;-74
2022/08/16 05:52:18;;;;;;;15.60;14.00;;;23.80;78.80;;;;;;5052762;28;20100;-74
2022/08/16 05:54:43;;;;;;;14.05;12.68;;;23.80;78.60;;;;;;5052499;28;20029;-73
2022/08/16 05:57:10;;;;;;;15.93;14.30;;;23.80;78.60;;;;;;5052708;28;20028;-74
2022/08/16 05:59:36;;;;;;;15.98;14.43;;;23.80;78.60;;;;;;5054660;28;20413;-74
2022/08/16 06:02:03;;;;;;;15.05;13.45;;;23.80;78.60;;;;;;5056741;28;20206;-74
2022/08/16 06:04:28;;;;;;;15.73;14.15;;;23.80;78.70;;;;;;5056742;28;20025;-73
2022/08/16 06:06:54;;;;;;;17.83;16.08;;;23.80;78.70;;;;;;5057054;28;20521;-74
2022/08/16 06:09:20;;;;;;;19.05;15.60;;;23.90;79.60;;;;;;5057018;28;20098;-74
2022/08/16 06:11:46;;;;;;;16.27;14.68;;;23.80;79.10;;;;;;5056682;28;20044;-74
2022/08/16 06:14:12;;;;;;;14.48;12.98;;;23.80;79.20;;;;;;5056559;28;20037;-74
2022/08/16 06:16:38;;;;;;;16.77;14.55;;;23.80;79.10;;;;;;5056805;28;20044;-73
2022/08/16 06:19:03;;;;;;;18.60;16.15;;;23.90;79.00;;;;;;5056830;28;20507;-74
2022/08/16 06:21:29;;;;;;;17.73;15.48;;;23.90;78.90;;;;;;5056837;28;20021;-74
2022/08/16 06:23:54;;;;;;;16.75;15.05;;;24.00;78.90;;;;;;5056341;28;20099;-74
2022/08/16 06:26:20;;;;;;;17.35;14.40;;;24.00;78.90;;;;;;5056395;28;20040;-74
2022/08/16 06:28:46;;;;;;;15.98;14.43;;;24.10;78.80;;;;;;5056621;28;20044;-74
2022/08/16 06:31:13;;;;;;;17.45;15.65;;;24.20;78.60;;;;;;5056395;28;20032;-74
2022/08/16 06:33:40;;;;;;;19.33;15.73;;;24.20;78.40;;;;;;5056590;28;20380;-73
2022/08/16 06:36:08;;;;;;;17.35;15.32;;;24.20;78.10;;;;;;5055916;28;20472;-74
2022/08/16 06:38:34;;;;;;;21.20;15.02;;;24.20;77.90;;;;;;5056092;28;20021;-74
2022/08/16 06:41:05;;;;;;;19.90;16.38;;;24.20;78.30;;;;;;5056297;28;20028;-74
2022/08/16 06:43:31;;;;;;;16.90;15.20;;;24.20;78.20;;;;;;5056169;28;20302;-74
2022/08/16 06:45:58;;;;;;;18.10;16.30;;;24.20;77.40;;;;;;5055971;28;20530;-74
2022/08/16 06:48:24;;;;;;;19.98;17.15;;;24.20;77.40;;;;;;5055925;28;20081;-74
2022/08/16 06:50:51;;;;;;;19.48;15.75;;;24.20;77.50;;;;;;5055947;28;20108;-74
2022/08/16 06:53:17;;;;;;;17.90;16.08;;;24.20;77.50;;;;;;5055926;28;20033;-74
2022/08/16 06:55:43;;;;;;;18.35;14.75;;;24.20;77.50;;;;;;5055855;28;20041;-74
2022/08/16 06:58:09;;;;;;;16.95;14.73;;;24.20;77.20;;;;;;5055773;28;20028;-74
2022/08/16 07:00:35;;;;;;;17.95;15.77;;;24.30;77.00;;;;;;5055942;28;20124;-74
2022/08/16 07:03:01;;;;;;;17.88;15.45;;;24.40;76.70;;;;;;5055668;28;20443;-74
2022/08/16 07:05:30;;;;;;;20.17;17.92;;;24.30;76.40;;;;;;5055701;28;20025;-73
2022/08/16 07:07:56;;;;;;;19.25;15.60;;;24.40;76.40;;;;;;5055523;28;20036;-73
2022/08/16 07:10:22;;;;;;;21.48;15.50;;;24.40;76.10;;;;;;5055063;28;20086;-74
2022/08/16 07:12:49;;;;;;;17.02;15.15;;;24.40;75.90;;;;;;5055622;28;20067;-74
2022/08/16 07:15:16;;;;;;;20.55;16.23;;;24.50;75.80;;;;;;5055568;28;20047;-74
2022/08/16 07:17:43;;;;;;;25.73;17.48;;;24.50;75.50;;;;;;5055417;28;20029;-74
2022/08/16 07:20:09;;;;;;;17.30;14.77;;;24.50;75.50;;;;;;5055495;28;20495;-74
2022/08/16 07:22:35;;;;;;;21.20;17.67;;;24.50;75.50;;;;;;5055506;28;20112;-74
2022/08/16 07:25:01;;;;;;;17.48;14.68;;;24.60;75.40;;;;;;5055273;28;20501;-74
2022/08/16 07:27:27;;;;;;;20.00;15.55;;;24.60;75.30;;;;;;5055256;28;20025;-74
2022/08/16 07:29:53;;;;;;;19.20;15.57;;;24.70;74.90;;;;;;5055423;28;20021;-74
2022/08/16 07:32:20;;;;;;;17.17;15.38;;;24.80;74.30;;;;;;5055104;28;20051;-74
2022/08/16 07:34:46;;;;;;;15.48;13.63;;;24.80;74.10;;;;;;5055096;28;20043;-74
2022/08/16 07:37:11;;;;;;;16.58;12.40;;;24.80;74.10;;;;;;5055339;28;20029;-74
2022/08/16 07:39:38;;;;;;;13.32;11.82;;;24.90;73.80;;;;;;5055146;28;20032;-74
2022/08/16 07:42:04;;;;;;;14.20;12.75;;;25.00;73.40;;;;;;5055237;28;20108;-74
2022/08/16 07:44:31;;;;;;;11.63;10.43;;;25.00;73.00;;;;;;5055333;28;20031;-74
2022/08/16 07:46:56;;;;;;;13.70;12.00;;;25.20;72.50;;;;;;5054970;28;20024;-74
2022/08/16 07:49:22;;;;;;;13.52;12.00;;;25.20;71.80;;;;;;5055150;28;20025;-75
2022/08/16 07:51:48;;;;;;;14.45;12.55;;;25.30;72.10;;;;;;5054869;28;20112;-75
2022/08/16 07:54:15;;;;;;;21.05;12.88;;;25.30;70.70;;;;;;5055033;28;20029;-75
2022/08/16 07:56:41;;;;;;;14.23;11.70;;;25.30;70.90;;;;;;5054646;28;20033;-75
2022/08/16 07:59:07;;;;;;;14.32;10.98;;;25.30;71.10;;;;;;5054882;28;20027;-75
2022/08/16 08:01:37;;;;;;;12.88;11.48;;;25.40;70.90;;;;;;5054465;28;20033;-75
2022/08/16 08:04:03;;;;;;;14.27;11.40;;;25.50;70.60;;;;;;5054644;28;20370;-75
2022/08/16 08:06:31;;;;;;;13.20;11.20;;;25.60;70.40;;;;;;5054894;28;20088;-75
2022/08/16 08:08:57;;;;;;;12.02;10.27;;;25.70;70.40;;;;;;5054559;28;20029;-75
2022/08/16 08:11:24;;;;;;;16.70;11.38;;;25.70;70.40;;;;;;5054438;28;20074;-75
2022/08/16 08:13:53;;;;;;;11.43;9.55;;;25.90;70.10;;;;;;5054561;28;20086;-75
2022/08/16 08:16:20;;;;;;;12.65;10.85;;;26.00;70.30;;;;;;5054534;28;20465;-75
2022/08/16 08:18:47;;;;;;;10.60;9.23;;;26.10;69.40;;;;;;5054205;28;20104;-75
2022/08/16 08:21:12;;;;;;;11.02;8.70;;;26.20;69.40;;;;;;5053914;28;20452;-75
2022/08/16 08:23:38;;;;;;;9.07;8.10;;;26.40;69.40;;;;;;5053931;28;20032;-75
2022/08/16 08:26:05;;;;;;;13.13;9.15;;;26.50;68.50;;;;;;5054158;28;20029;-74
2022/08/16 08:28:31;;;;;;;12.27;9.15;;;26.60;67.70;;;;;;5054174;28;20037;-74
2022/08/16 08:31:00;;;;;;;10.00;8.13;;;26.60;66.30;;;;;;5054093;28;20023;-74
2022/08/16 08:33:26;;;;;;;11.77;8.50;;;26.70;66.40;;;;;;5053886;28;20037;-74
2022/08/16 08:35:59;;;;;;;9.05;7.00;;;26.70;66.00;;;;;;5054249;28;20377;-75
2022/08/16 08:38:26;;;;;;;9.50;7.75;;;26.80;65.70;;;;;;5054158;28;20021;-74
2022/08/16 08:40:52;;;;;;;11.63;8.80;;;26.80;65.20;;;;;;5054160;28;20075;-74
2022/08/16 08:43:18;;;;;;;10.15;7.53;;;26.80;65.20;;;;;;5053736;28;20380;-74
2022/08/16 08:45:44;;;;;;;8.30;7.03;;;26.90;65.70;;;;;;5053716;28;20021;-74
2022/08/16 08:48:09;;;;;;;9.70;8.10;;;27.00;65.90;;;;;;5054024;28;20085;-74
2022/08/16 08:50:35;;;;;;;10.90;7.75;;;27.10;65.30;;;;;;5053840;28;20417;-74
2022/08/16 08:53:01;;;;;;;8.63;7.72;;;27.20;65.20;;;;;;5054083;28;20039;-75
2022/08/16 08:55:27;;;;;;;10.90;7.70;;;27.30;65.50;;;;;;5053782;28;20037;-75
2022/08/16 08:57:53;;;;;;;10.73;8.05;;;27.40;65.70;;;;;;5053560;28;20104;-75
2022/08/16 09:00:23;;;;;;;12.30;7.75;;;27.40;65.10;;;;;;5053425;28;20533;-75
2022/08/16 09:02:50;;;;;;;10.18;7.82;;;27.50;65.10;;;;;;5053841;28;20029;-75
2022/08/16 09:05:17;;;;;;;9.82;7.40;;;27.50;65.10;;;;;;5053412;28;20035;-75
2022/08/16 09:07:43;;;;;;;13.77;8.93;;;27.50;65.60;;;;;;5053236;28;20471;-75
2022/08/16 09:10:09;;;;;;;15.45;7.68;;;27.60;65.20;;;;;;5053237;28;20025;-75
2022/08/16 09:12:36;;;;;;;11.95;8.15;;;27.70;65.30;;;;;;5053386;28;20377;-75
2022/08/16 09:15:02;;;;;;;12.88;8.95;;;27.70;65.10;;;;;;5053499;28;20033;-75
2022/08/16 09:17:28;;;;;;;10.48;8.25;;;27.80;64.90;;;;;;5053490;28;20032;-75
2022/08/16 09:19:54;;;;;;;9.70;6.50;;;27.80;65.20;;;;;;5053274;28;20100;-75
2022/08/16 09:22:21;;;;;;;8.65;7.20;;;27.80;65.30;;;;;;5053475;28;20142;-75
2022/08/16 09:24:49;;;;;;;11.10;7.72;;;28.00;64.90;;;;;;5052984;28;20049;-75
2022/08/16 09:27:15;;;;;;;9.57;7.28;;;28.00;63.40;;;;;;5053069;28;20026;-75
2022/08/16 09:29:41;;;;;;;13.63;6.47;;;27.90;63.40;;;;;;5053223;28;20033;-75
2022/08/16 09:32:07;;;;;;;11.55;7.05;;;27.90;63.50;;;;;;5052999;28;20029;-75
2022/08/16 09:34:32;;;;;;;12.45;7.68;;;27.90;63.60;;;;;;5052624;28;20059;-76
2022/08/16 09:36:58;;;;;;;11.00;7.57;;;28.00;63.50;;;;;;5053411;28;20033;-75
2022/08/16 09:39:24;;;;;;;12.15;7.63;;;28.10;63.70;;;;;;5052833;28;20111;-75
2022/08/16 09:41:54;;;;;;;9.82;6.47;;;28.10;63.40;;;;;;5053203;28;20464;-75
2022/08/16 09:44:23;;;;;;;11.77;6.97;;;28.10;63.50;;;;;;5053056;28;20122;-75
2022/08/16 09:46:49;;;;;;;8.45;7.57;;;28.20;63.70;;;;;;5053129;28;20029;-75
2022/08/16 09:49:15;;;;;;;7.80;6.53;;;28.20;63.00;;;;;;5053530;28;20423;-75
2022/08/16 09:51:41;;;;;;;8.10;6.75;;;28.30;62.90;;;;;;5053164;28;20048;-75
2022/08/16 09:54:09;;;;;;;7.93;7.03;;;28.20;63.00;;;;;;5052980;28;20051;-75
2022/08/16 09:56:37;;;;;;;8.05;7.22;;;28.20;63.00;;;;;;5052694;28;20055;-75
2022/08/16 09:59:06;;;;;;;8.05;7.20;;;28.00;62.80;;;;;;5053173;28;20033;-75
2022/08/16 10:01:32;;;;;;;7.65;6.40;;;28.00;63.20;;;;;;5052776;28;20071;-75
2022/08/16 10:03:58;;;;;;;13.02;7.47;;;27.90;63.30;;;;;;5053043;28;20017;-75
2022/08/16 10:06:24;;;;;;;12.15;7.15;;;27.90;62.80;;;;;;5052885;28;20029;-75
2022/08/16 10:08:51;;;;;;;8.20;5.60;;;28.00;62.90;;;;;;5052927;28;20104;-75
2022/08/16 10:14:01;;;;;;;8.50;6.78;;;28.30;62.80;;;;;;5052989;28;20023;-75
2022/08/16 10:16:27;;;;;;;10.43;6.95;;;28.40;62.00;;;;;;5052951;28;20032;-75
2022/08/16 10:18:53;;;;;;;10.63;6.32;;;28.50;61.60;;;;;;5052427;28;20408;-75
2022/08/16 10:21:19;;;;;;;8.45;6.38;;;28.60;61.30;;;;;;5052729;28;20434;-75
2022/08/16 10:23:47;;;;;;;15.77;6.47;;;28.80;61.30;;;;;;5052097;28;20124;-75
2022/08/16 10:26:13;;;;;;;8.13;6.80;;;28.90;61.10;;;;;;5052810;28;20029;-75
2022/08/16 10:28:39;;;;;;;8.18;6.35;;;28.80;60.00;;;;;;5052582;28;20021;-75
2022/08/16 10:31:05;;;;;;;13.23;6.65;;;28.80;59.90;;;;;;5052248;28;20151;-75
2022/08/16 10:33:32;;;;;;;10.20;5.88;;;28.90;60.50;;;;;;5052622;28;20036;-75
2022/08/16 10:35:59;;;;;;;9.90;5.68;;;29.00;60.50;;;;;;5052554;28;20468;-75
2022/08/16 10:38:26;;;;;;;11.38;5.85;;;28.90;60.30;;;;;;5052319;28;20032;-75
2022/08/16 10:40:53;;;;;;;10.98;7.20;;;29.10;60.90;;;;;;5052717;28;20025;-75
2022/08/16 10:43:19;;;;;;;9.68;6.45;;;29.20;59.80;;;;;;5052491;28;20078;-75
2022/08/16 10:45:47;;;;;;;9.07;6.15;;;29.20;59.60;;;;;;5052842;28;20028;-75
2022/08/16 10:48:13;;;;;;;8.07;5.13;;;29.20;59.60;;;;;;5055782;28;20503;-75
2022/08/16 10:50:39;;;;;;;7.20;5.53;;;29.30;59.40;;;;;;5056076;28;20032;-75
2022/08/16 10:53:05;;;;;;;6.45;5.00;;;29.50;58.90;;;;;;5055523;28;20025;-75
2022/08/16 10:55:36;;;;;;;9.65;5.22;;;29.50;58.40;;;;;;5055547;28;20041;-75
2022/08/16 10:58:07;;;;;;;9.55;4.63;;;29.50;58.90;;;;;;5055955;28;20535;-75
2022/08/16 11:00:37;;;;;;;8.52;5.32;;;29.60;58.10;;;;;;5055833;28;20041;-75
2022/08/16 11:03:04;;;;;;;11.80;5.82;;;29.70;57.90;;;;;;5055570;28;20026;-75
2022/08/16 11:05:32;;;;;;;8.23;5.43;;;29.70;57.40;;;;;;5055478;28;20473;-75
2022/08/16 11:07:59;;;;;;;8.20;4.68;;;29.70;57.40;;;;;;5055577;28;20118;-75
2022/08/16 11:10:29;;;;;;;8.80;5.95;;;29.70;57.20;;;;;;5055490;28;20415;-75
2022/08/16 11:12:55;;;;;;;7.13;4.75;;;29.80;57.50;;;;;;5055520;28;20384;-75
2022/08/16 11:15:21;;;;;;;6.63;4.93;;;29.90;57.90;;;;;;5055352;28;20036;-75
2022/08/16 11:17:49;;;;;;;10.27;5.30;;;29.90;57.30;;;;;;5055308;28;20048;-75
2022/08/16 11:20:16;;;;;;;9.20;4.95;;;30.00;58.20;;;;;;5055240;28;20028;-75
2022/08/16 11:22:42;;;;;;;9.55;4.25;;;30.20;56.80;;;;;;5055607;28;20310;-75
2022/08/16 11:25:09;;;;;;;5.65;3.60;;;30.20;56.30;;;;;;5055081;28;20067;-75
2022/08/16 11:27:35;;;;;;;7.03;4.10;;;30.20;55.70;;;;;;5055517;28;20025;-75
2022/08/16 11:30:01;;;;;;;9.25;5.05;;;30.30;55.80;;;;;;5054898;28;20112;-75
2022/08/16 11:32:28;;;;;;;9.52;5.10;;;30.20;55.80;;;;;;5055018;28;20021;-76
2022/08/16 11:34:55;;;;;;;8.93;4.70;;;30.20;56.10;;;;;;5055396;28;20116;-75
2022/08/16 11:37:21;;;;;;;7.60;4.43;;;30.10;56.40;;;;;;5055372;28;20021;-76
2022/08/16 11:39:47;;;;;;;6.70;5.07;;;30.10;56.80;;;;;;5055234;28;20029;-76
2022/08/16 11:42:12;;;;;;;9.48;4.50;;;30.20;56.60;;;;;;5054948;28;20024;-75
2022/08/16 11:44:38;;;;;;;5.82;4.15;;;30.20;56.60;;;;;;5054968;28;20456;-75
2022/08/16 11:47:04;;;;;;;13.57;5.68;;;30.30;56.40;;;;;;5054786;28;20468;-75
2022/08/16 11:49:29;;;;;;;7.57;5.45;;;30.40;56.10;;;;;;5054842;28;20047;-75
2022/08/16 11:51:55;;;;;;;8.27;5.57;;;30.40;56.00;;;;;;5054825;28;20056;-76
2022/08/16 11:54:22;;;;;;;8.98;5.63;;;30.50;56.30;;;;;;5054738;28;20029;-76
2022/08/16 11:56:48;;;;;;;9.82;5.68;;;30.50;55.90;;;;;;5054332;28;20036;-76
2022/08/16 11:59:14;;;;;;;7.60;4.95;;;30.50;55.60;;;;;;5054848;28;20029;-76
2022/08/16 12:01:40;;;;;;;10.73;5.50;;;30.50;55.70;;;;;;5054920;28;20025;-75
2022/08/16 12:04:06;;;;;;;8.43;5.20;;;30.60;55.50;;;;;;5054936;28;20377;-76
2022/08/16 12:06:32;;;;;;;5.72;4.22;;;30.60;55.00;;;;;;5054793;28;20033;-76
2022/08/16 12:08:59;;;;;;;7.13;5.20;;;30.70;55.00;;;;;;5054575;28;20479;-76
2022/08/16 12:11:25;;;;;;;4.97;3.40;;;30.70;55.20;;;;;;5054382;28;20459;-76
2022/08/16 12:13:52;;;;;;;10.07;4.97;;;30.70;53.80;;;;;;5054740;28;20061;-76
2022/08/16 12:16:18;;;;;;;5.70;3.75;;;30.60;54.00;;;;;;5054496;28;20029;-76
2022/08/16 12:18:48;;;;;;;6.28;4.13;;;30.60;54.20;;;;;;5054170;28;20044;-76
2022/08/16 12:21:15;;;;;;;11.30;3.97;;;30.60;54.20;;;;;;5054823;28;20403;-76
2022/08/16 12:23:40;;;;;;;6.88;4.88;;;30.60;54.40;;;;;;5054161;28;20120;-76
2022/08/16 12:26:06;;;;;;;6.85;4.13;;;30.70;54.60;;;;;;5054205;28;20051;-75
2022/08/16 12:28:33;;;;;;;7.28;4.68;;;30.60;54.70;;;;;;5054161;28;20033;-75
2022/08/16 12:30:58;;;;;;;6.80;4.80;;;30.50;55.30;;;;;;5053830;28;20045;-75
2022/08/16 12:33:24;;;;;;;10.70;6.00;;;30.50;56.00;;;;;;5054349;28;20059;-75
2022/08/16 12:35:50;;;;;;;9.07;6.93;;;30.40;56.60;;;;;;5053963;28;20383;-75
2022/08/16 12:38:16;;;;;;;7.82;5.97;;;30.30;56.70;;;;;;5054249;28;20047;-75